Time,TemperatureF,DewpointF,PressureIn,WindDirection,WindDirectionDegrees,WindSpeedMPH,WindSpeedGustMPH,Humidity,HourlyPrecipIn,Conditions,Clouds,dailyrainin,SoftwareType,DateUTC
2013-02-23 00:01:00,26.4,22.2,30.19,West,275,0.0,0.0,84,0.00,,---,0.00,VWS V14.00,2013-02-23 07:01:00,
2013-02-23 00:06:00,26.2,22.0,30.20,West,275,0.0,0.0,84,0.00,,---,0.00,VWS V14.00,2013-02-23 07:06:00,
2013-02-23 00:11:00,25.8,21.6,30.20,West,275,0.0,0.0,84,0.00,,---,0.00,VWS V14.00,2013-02-23 07:11:00,
2013-02-23 00:16:00,25.6,21.5,30.20,West,275,0.0,0.0,84,0.00,,---,0.00,VWS V14.00,2013-02-23 07:16:00,
2013-02-23 00:21:00,25.6,22.0,30.20,West,275,0.0,0.0,86,0.00,,---,0.00,VWS V14.00,2013-02-23 07:21:00,
2013-02-23 00:26:00,25.8,22.2,30.20,West,275,0.0,0.0,86,0.00,,---,0.00,VWS V14.00,2013-02-23 07:26:00,
2013-02-23 00:31:00,25.7,21.8,30.20,West,275,0.0,0.0,85,0.00,,---,0.00,VWS V14.00,2013-02-23 07:31:00,
2013-02-23 00:36:00,25.6,21.7,30.20,West,275,0.0,0.0,85,0.00,,---,0.00,VWS V14.00,2013-02-23 07:36:00,
2013-02-23 00:41:00,25.2,21.0,30.20,West,275,0.0,0.0,84,0.00,,---,0.00,VWS V14.00,2013-02-23 07:41:00,
2013-02-23 00:46:00,24.9,21.0,30.20,West,275,0.0,0.0,85,0.00,,---,0.00,VWS V14.00,2013-02-23 07:46:00,
2013-02-23 00:51:00,25.2,21.6,30.20,West,275,0.0,0.0,86,0.00,,---,0.00,VWS V14.00,2013-02-23 07:51:00,
2013-02-23 00:56:00,24.4,20.0,30.20,West,275,0.0,0.0,83,0.00,,---,0.00,VWS V14.00,2013-02-23 07:56:00,
2013-02-23 01:01:00,23.9,20.1,30.20,West,275,0.0,0.0,85,0.00,,---,0.00,VWS V14.00,2013-02-23 08:01:00,
2013-02-23 01:06:00,24.6,21.3,30.20,West,275,0.0,0.0,87,0.00,,---,0.00,VWS V14.00,2013-02-23 08:06:00,
2013-02-23 01:11:00,25.3,22.2,30.20,West,275,0.0,0.0,88,0.00,,---,0.00,VWS V14.00,2013-02-23 08:11:00,
2013-02-23 01:16:00,26.0,22.7,30.20,West,275,0.0,0.0,87,0.00,,---,0.00,VWS V14.00,2013-02-23 08:16:00,
2013-02-23 01:21:00,26.2,22.6,30.20,West,275,0.0,0.0,86,0.00,,---,0.00,VWS V14.00,2013-02-23 08:21:00,
2013-02-23 01:26:00,26.2,22.3,30.20,West,275,0.0,0.0,85,0.00,,---,0.00,VWS V14.00,2013-02-23 08:26:00,
2013-02-23 01:31:00,26.7,23.1,30.20,West,275,0.0,0.0,86,0.00,,---,0.00,VWS V14.00,2013-02-23 08:31:00,
2013-02-23 01:36:00,27.2,23.3,30.20,West,275,0.0,0.0,85,0.00,,---,0.00,VWS V14.00,2013-02-23 08:36:00,
2013-02-23 01:41:00,27.6,23.4,30.20,West,275,0.0,0.0,84,0.00,,---,0.00,VWS V14.00,2013-02-23 08:41:00,
2013-02-23 01:46:00,28.1,23.6,30.19,West,275,0.0,0.0,83,0.00,,---,0.00,VWS V14.00,2013-02-23 08:46:00,
2013-02-23 01:51:00,28.3,23.2,30.19,West,275,0.0,0.0,81,0.00,,---,0.00,VWS V14.00,2013-02-23 08:51:00,
2013-02-23 01:56:00,28.1,23.0,30.19,West,275,0.0,0.0,81,0.00,,---,0.00,VWS V14.00,2013-02-23 08:56:00,
2013-02-23 02:01:00,28.0,22.6,30.19,West,275,0.0,0.0,80,0.00,,---,0.00,VWS V14.00,2013-02-23 09:01:00,
2013-02-23 02:06:00,28.1,23.0,30.19,West,275,0.0,0.0,81,0.00,,---,0.00,VWS V14.00,2013-02-23 09:06:00,
2013-02-23 02:11:00,28.1,22.7,30.19,West,275,0.0,0.0,80,0.00,,---,0.00,VWS V14.00,2013-02-23 09:11:00,
2013-02-23 02:16:00,28.1,22.7,30.18,West,275,0.0,0.0,80,0.00,,---,0.00,VWS V14.00,2013-02-23 09:16:00,
2013-02-23 02:21:00,28.1,22.4,30.18,West,275,0.0,0.0,79,0.00,,---,0.00,VWS V14.00,2013-02-23 09:21:00,
2013-02-23 02:26:00,27.3,21.4,30.18,West,275,0.0,0.0,78,0.00,,---,0.00,VWS V14.00,2013-02-23 09:26:00,
2013-02-23 02:31:00,26.3,20.7,30.18,West,275,0.0,0.0,79,0.00,,---,0.00,VWS V14.00,2013-02-23 09:31:00,
2013-02-23 02:36:00,25.5,19.9,30.18,West,275,0.0,0.0,79,0.00,,---,0.00,VWS V14.00,2013-02-23 09:36:00,
2013-02-23 02:41:00,24.5,18.9,30.18,West,275,0.0,0.0,79,0.00,,---,0.00,VWS V14.00,2013-02-23 09:41:00,
2013-02-23 02:46:00,23.7,18.7,30.18,West,275,0.0,0.0,81,0.00,,---,0.00,VWS V14.00,2013-02-23 09:46:00,
2013-02-23 02:51:00,24.0,20.1,30.18,West,275,0.0,0.0,85,0.00,,---,0.00,VWS V14.00,2013-02-23 09:51:00,
2013-02-23 02:56:00,25.1,21.5,30.17,West,275,0.0,0.0,86,0.00,,---,0.00,VWS V14.00,2013-02-23 09:56:00,
2013-02-23 03:01:00,25.3,20.6,30.17,West,275,0.0,0.0,82,0.00,,---,0.00,VWS V14.00,2013-02-23 10:01:00,
2013-02-23 03:06:00,24.7,19.7,30.17,West,275,0.0,0.0,81,0.00,,---,0.00,VWS V14.00,2013-02-23 10:06:00,
2013-02-23 03:11:00,24.5,19.8,30.17,West,275,0.0,0.0,82,0.00,,---,0.00,VWS V14.00,2013-02-23 10:11:00,
2013-02-23 03:16:00,24.4,20.3,30.17,West,275,0.0,0.0,84,0.00,,---,0.00,VWS V14.00,2013-02-23 10:16:00,
2013-02-23 03:21:00,25.0,20.6,30.17,West,275,0.0,0.0,83,0.00,,---,0.00,VWS V14.00,2013-02-23 10:21:00,
2013-02-23 03:26:00,25.2,20.8,30.17,West,275,0.0,0.0,83,0.00,,---,0.00,VWS V14.00,2013-02-23 10:26:00,
2013-02-23 03:31:00,26.0,21.6,30.16,West,275,0.0,0.0,83,0.00,,---,0.00,VWS V14.00,2013-02-23 10:31:00,
2013-02-23 03:36:00,26.7,22.0,30.16,West,275,0.0,0.0,82,0.00,,---,0.00,VWS V14.00,2013-02-23 10:36:00,
2013-02-23 03:41:00,26.7,20.5,30.16,West,275,0.0,0.0,77,0.00,,---,0.00,VWS V14.00,2013-02-23 10:41:00,
2013-02-23 03:46:00,25.8,19.6,30.16,West,275,0.0,0.0,77,0.00,,---,0.00,VWS V14.00,2013-02-23 10:46:00,
2013-02-23 03:51:00,24.9,19.3,30.16,West,275,0.0,0.0,79,0.00,,---,0.00,VWS V14.00,2013-02-23 10:51:00,
2013-02-23 03:56:00,23.9,18.0,30.16,West,275,0.0,0.0,78,0.00,,---,0.00,VWS V14.00,2013-02-23 10:56:00,
2013-02-23 04:02:00,23.2,18.0,30.16,West,275,0.0,0.0,80,0.00,,---,0.00,VWS V14.00,2013-02-23 11:02:00,
2013-02-23 04:07:00,23.3,19.2,30.16,West,275,0.0,0.0,84,0.00,,---,0.00,VWS V14.00,2013-02-23 11:07:00,
2013-02-23 04:12:00,23.5,19.4,30.15,West,275,0.0,0.0,84,0.00,,---,0.00,VWS V14.00,2013-02-23 11:12:00,
2013-02-23 04:17:00,23.4,18.7,30.16,West,275,0.0,0.0,82,0.00,,---,0.00,VWS V14.00,2013-02-23 11:17:00,
2013-02-23 04:22:00,22.9,18.2,30.15,West,275,0.0,0.0,82,0.00,,---,0.00,VWS V14.00,2013-02-23 11:22:00,
2013-02-23 04:27:00,23.0,18.9,30.15,West,275,0.0,0.0,84,0.00,,---,0.00,VWS V14.00,2013-02-23 11:27:00,
2013-02-23 04:32:00,23.4,19.3,30.15,West,275,0.0,0.0,84,0.00,,---,0.00,VWS V14.00,2013-02-23 11:32:00,
2013-02-23 04:37:00,24.0,19.9,30.15,West,275,0.0,0.0,84,0.00,,---,0.00,VWS V14.00,2013-02-23 11:37:00,
2013-02-23 04:42:00,25.0,20.9,30.15,West,275,0.0,0.0,84,0.00,,---,0.00,VWS V14.00,2013-02-23 11:42:00,
2013-02-23 04:47:00,25.9,21.2,30.15,West,275,0.0,0.0,82,0.00,,---,0.00,VWS V14.00,2013-02-23 11:47:00,
2013-02-23 04:52:00,26.2,20.3,30.15,West,260,0.0,0.0,78,0.00,,---,0.00,VWS V14.00,2013-02-23 11:52:00,
2013-02-23 04:57:00,25.9,19.7,30.16,West,260,0.0,0.0,77,0.00,,---,0.00,VWS V14.00,2013-02-23 11:57:00,
2013-02-23 05:02:00,25.8,19.6,30.16,West,260,0.0,0.0,77,0.00,,---,0.00,VWS V14.00,2013-02-23 12:02:00,
2013-02-23 05:07:00,25.3,19.4,30.15,West,260,0.0,0.0,78,0.00,,---,0.00,VWS V14.00,2013-02-23 12:07:00,
2013-02-23 05:12:00,24.6,18.4,30.15,WSW,256,0.0,0.0,77,0.00,,---,0.00,VWS V14.00,2013-02-23 12:12:00,
2013-02-23 05:17:00,24.2,18.6,30.15,WSW,255,0.0,0.0,79,0.00,,---,0.00,VWS V14.00,2013-02-23 12:17:00,
2013-02-23 05:22:00,24.9,19.3,30.15,WSW,253,0.0,0.0,79,0.00,,---,0.00,VWS V14.00,2013-02-23 12:22:00,
2013-02-23 05:27:00,25.1,19.2,30.15,WSW,253,0.0,0.0,78,0.00,,---,0.00,VWS V14.00,2013-02-23 12:27:00,
2013-02-23 05:32:00,24.7,18.5,30.15,WSW,253,0.0,0.0,77,0.00,,---,0.00,VWS V14.00,2013-02-23 12:32:00,
2013-02-23 05:37:00,23.8,18.0,30.15,WSW,251,0.0,0.0,78,0.00,,---,0.00,VWS V14.00,2013-02-23 12:37:00,
2013-02-23 05:42:00,23.4,18.1,30.15,WSW,246,0.0,0.0,80,0.00,,---,0.00,VWS V14.00,2013-02-23 12:42:00,
2013-02-23 05:47:00,23.4,18.7,30.15,SW,226,0.0,0.0,82,0.00,,---,0.00,VWS V14.00,2013-02-23 12:47:00,
2013-02-23 05:52:00,23.3,18.3,30.15,SW,223,0.0,0.0,81,0.00,,---,0.00,VWS V14.00,2013-02-23 12:52:00,
2013-02-23 05:57:00,23.1,18.1,30.15,SW,221,0.0,0.0,81,0.00,,---,0.00,VWS V14.00,2013-02-23 12:57:00,
2013-02-23 06:02:00,23.4,18.7,30.16,SW,221,0.0,0.0,82,0.00,,---,0.00,VWS V14.00,2013-02-23 13:02:00,
2013-02-23 06:07:00,22.9,17.4,30.16,SW,221,0.0,0.0,79,0.00,,---,0.00,VWS V14.00,2013-02-23 13:07:00,
2013-02-23 06:12:00,22.1,16.6,30.16,SW,221,0.0,0.0,79,0.00,,---,0.00,VWS V14.00,2013-02-23 13:12:00,
2013-02-23 06:17:00,21.2,16.3,30.16,SW,221,0.0,0.0,81,0.00,,---,0.00,VWS V14.00,2013-02-23 13:17:00,
2013-02-23 06:22:00,20.6,16.0,30.15,SW,220,0.0,0.0,82,0.00,,---,0.00,VWS V14.00,2013-02-23 13:22:00,
2013-02-23 06:27:00,20.3,16.0,30.16,SW,220,0.0,0.0,83,0.00,,---,0.00,VWS V14.00,2013-02-23 13:27:00,
2013-02-23 06:32:00,20.2,16.1,30.16,SW,220,0.0,0.0,84,0.00,,---,0.00,VWS V14.00,2013-02-23 13:32:00,
2013-02-23 06:37:00,20.5,16.7,30.16,SW,220,0.0,0.0,85,0.00,,---,0.00,VWS V14.00,2013-02-23 13:37:00,
2013-02-23 06:42:00,20.3,16.2,30.16,SW,220,0.0,0.0,84,0.00,,---,0.00,VWS V14.00,2013-02-23 13:42:00,
2013-02-23 06:47:00,19.7,15.1,30.16,SW,220,0.0,0.0,82,0.00,,---,0.00,VWS V14.00,2013-02-23 13:47:00,
2013-02-23 06:52:00,19.4,15.4,30.17,SW,220,0.0,0.0,84,0.00,,---,0.00,VWS V14.00,2013-02-23 13:52:00,
2013-02-23 06:57:00,19.7,15.9,30.17,SW,220,0.0,0.0,85,0.00,,---,0.00,VWS V14.00,2013-02-23 13:57:00,
2013-02-23 07:02:00,20.3,17.1,30.17,SW,220,0.0,0.0,87,0.00,,---,0.00,VWS V14.00,2013-02-23 14:02:00,
2013-02-23 07:07:00,20.4,16.9,30.17,SW,220,0.0,0.0,86,0.00,,---,0.00,VWS V14.00,2013-02-23 14:07:00,
2013-02-23 07:12:00,20.6,17.1,30.17,SW,220,0.0,0.0,86,0.00,,---,0.00,VWS V14.00,2013-02-23 14:12:00,
2013-02-23 07:17:00,20.4,16.6,30.17,SW,220,0.0,0.0,85,0.00,,---,0.00,VWS V14.00,2013-02-23 14:17:00,
2013-02-23 07:22:00,20.4,16.9,30.17,SW,220,0.0,0.0,86,0.00,,---,0.00,VWS V14.00,2013-02-23 14:22:00,
2013-02-23 07:27:00,20.8,17.3,30.17,SW,220,0.0,0.0,86,0.00,,---,0.00,VWS V14.00,2013-02-23 14:27:00,
2013-02-23 07:32:00,21.5,18.2,30.16,SW,220,0.0,0.0,87,0.00,,---,0.00,VWS V14.00,2013-02-23 14:32:00,
2013-02-23 07:37:00,22.9,19.9,30.17,SW,220,0.0,0.0,88,0.00,,---,0.00,VWS V14.00,2013-02-23 14:37:00,
2013-02-23 07:42:00,24.5,21.7,30.17,SW,220,0.0,0.0,89,0.00,,---,0.00,VWS V14.00,2013-02-23 14:42:00,
2013-02-23 07:47:00,26.6,24.1,30.17,SW,220,0.0,0.0,90,0.00,,---,0.00,VWS V14.00,2013-02-23 14:47:00,
2013-02-23 07:52:00,28.5,25.1,30.17,SW,220,0.0,0.0,87,0.00,,---,0.00,VWS V14.00,2013-02-23 14:52:00,
2013-02-23 07:58:00,30.2,26.0,30.17,SW,220,0.0,0.0,84,0.00,,---,0.00,VWS V14.00,2013-02-23 14:58:00,
2013-02-23 08:03:00,31.9,27.3,30.18,SW,220,0.0,0.0,83,0.00,,---,0.00,VWS V14.00,2013-02-23 15:03:00,
2013-02-23 08:08:00,33.3,27.8,30.17,SW,220,0.0,0.0,80,0.00,,---,0.00,VWS V14.00,2013-02-23 15:08:00,
2013-02-23 08:13:00,34.5,28.7,30.17,SW,220,0.0,0.0,79,0.00,,---,0.00,VWS V14.00,2013-02-23 15:13:00,
2013-02-23 08:18:00,35.9,28.8,30.17,SW,220,0.0,0.0,75,0.00,,---,0.00,VWS V14.00,2013-02-23 15:18:00,
2013-02-23 08:23:00,37.1,28.2,30.17,SW,220,0.0,0.0,70,0.00,,---,0.00,VWS V14.00,2013-02-23 15:23:00,
2013-02-23 08:28:00,38.0,28.4,30.17,SW,220,0.0,0.0,68,0.00,,---,0.00,VWS V14.00,2013-02-23 15:28:00,
2013-02-23 08:33:00,38.5,27.0,30.17,SW,220,0.0,0.0,63,0.00,,---,0.00,VWS V14.00,2013-02-23 15:33:00,
2013-02-23 08:38:00,38.9,27.0,30.17,SW,220,0.0,0.0,62,0.00,,---,0.00,VWS V14.00,2013-02-23 15:38:00,
2013-02-23 08:43:00,39.3,27.4,30.17,SW,220,0.0,0.0,62,0.00,,---,0.00,VWS V14.00,2013-02-23 15:43:00,
2013-02-23 08:48:00,39.8,26.7,30.17,SW,220,0.0,0.0,59,0.00,,---,0.00,VWS V14.00,2013-02-23 15:48:00,
2013-02-23 08:53:00,40.4,26.8,30.17,SW,220,0.0,0.0,58,0.00,,---,0.00,VWS V14.00,2013-02-23 15:53:00,
2013-02-23 08:58:00,40.9,27.3,30.16,SW,220,0.0,0.0,58,0.00,,---,0.00,VWS V14.00,2013-02-23 15:58:00,
2013-02-23 09:03:00,41.6,27.1,30.17,SW,219,0.0,0.0,56,0.00,,---,0.00,VWS V14.00,2013-02-23 16:03:00,
2013-02-23 09:08:00,42.1,26.7,30.16,SW,219,0.0,0.0,54,0.00,,---,0.00,VWS V14.00,2013-02-23 16:08:00,
2013-02-23 09:13:00,42.7,25.9,30.15,SW,219,0.0,0.0,51,0.00,,---,0.00,VWS V14.00,2013-02-23 16:13:00,
2013-02-23 09:18:00,43.1,25.3,30.16,SW,219,0.0,0.0,49,0.00,,---,0.00,VWS V14.00,2013-02-23 16:18:00,
2013-02-23 09:23:00,43.4,25.0,30.16,SW,219,0.0,0.0,48,0.00,,---,0.00,VWS V14.00,2013-02-23 16:23:00,
2013-02-23 09:28:00,43.8,24.9,30.16,SW,219,0.0,0.0,47,0.00,,---,0.00,VWS V14.00,2013-02-23 16:28:00,
2013-02-23 09:33:00,44.1,24.7,30.15,SW,219,0.0,0.0,46,0.00,,---,0.00,VWS V14.00,2013-02-23 16:33:00,
2013-02-23 09:38:00,44.2,24.8,30.15,SW,219,0.0,0.0,46,0.00,,---,0.00,VWS V14.00,2013-02-23 16:38:00,
2013-02-23 09:43:00,44.0,24.6,30.15,SW,219,0.0,3.0,46,0.00,,---,0.00,VWS V14.00,2013-02-23 16:43:00,
2013-02-23 09:48:00,43.9,24.0,30.15,SW,219,0.0,3.0,45,0.00,,---,0.00,VWS V14.00,2013-02-23 16:48:00,
2013-02-23 09:53:00,44.1,24.7,30.14,SW,219,0.0,3.0,46,0.00,,---,0.00,VWS V14.00,2013-02-23 16:53:00,
2013-02-23 09:58:00,44.2,24.2,30.14,SW,219,0.0,3.0,45,0.00,,---,0.00,VWS V14.00,2013-02-23 16:58:00,
2013-02-23 10:03:00,44.7,23.6,30.15,SW,219,0.0,0.0,43,0.00,,---,0.00,VWS V14.00,2013-02-23 17:03:00,
2013-02-23 10:08:00,45.4,24.8,30.15,SW,219,0.0,0.0,44,0.00,,---,0.00,VWS V14.00,2013-02-23 17:08:00,
2013-02-23 10:13:00,45.7,24.5,30.15,SW,219,0.0,3.0,43,0.00,,---,0.00,VWS V14.00,2013-02-23 17:13:00,
2013-02-23 10:18:00,45.9,25.2,30.15,SW,219,0.0,4.0,44,0.00,,---,0.00,VWS V14.00,2013-02-23 17:18:00,
2013-02-23 10:23:00,45.9,25.8,30.15,SW,219,0.0,4.0,45,0.00,,---,0.00,VWS V14.00,2013-02-23 17:23:00,
2013-02-23 10:28:00,46.1,26.5,30.15,SW,219,0.0,4.0,46,0.00,,---,0.00,VWS V14.00,2013-02-23 17:28:00,
2013-02-23 10:33:00,46.6,25.3,30.14,South,190,0.0,2.0,43,0.00,,---,0.00,VWS V14.00,2013-02-23 17:33:00,
2013-02-23 10:38:00,47.2,26.4,30.14,South,191,0.0,2.0,44,0.00,,---,0.00,VWS V14.00,2013-02-23 17:38:00,
2013-02-23 10:43:00,48.0,26.6,30.14,South,191,0.0,2.0,43,0.00,,---,0.00,VWS V14.00,2013-02-23 17:43:00,
2013-02-23 10:48:00,48.7,26.6,30.14,South,190,0.0,2.0,42,0.00,,---,0.00,VWS V14.00,2013-02-23 17:48:00,
2013-02-23 10:53:00,48.7,24.9,30.13,SSW,193,0.0,5.0,39,0.00,,---,0.00,VWS V14.00,2013-02-23 17:53:00,
2013-02-23 10:58:00,49.2,25.3,30.13,SE,128,0.0,5.0,39,0.00,,---,0.00,VWS V14.00,2013-02-23 17:58:00,
2013-02-23 11:03:00,49.7,27.0,30.13,SSE,166,0.0,0.0,41,0.00,,---,0.00,VWS V14.00,2013-02-23 18:03:00,
2013-02-23 11:08:00,50.0,24.8,30.13,SSE,168,0.0,0.0,37,0.00,,---,0.00,VWS V14.00,2013-02-23 18:08:00,
2013-02-23 11:13:00,50.3,23.7,30.13,SSE,152,0.0,0.0,35,0.00,,---,0.00,VWS V14.00,2013-02-23 18:13:00,
2013-02-23 11:18:00,50.9,21.4,30.12,SSE,152,0.0,5.0,31,0.00,,---,0.00,VWS V14.00,2013-02-23 18:18:00,
2013-02-23 11:23:00,51.4,21.0,30.12,SSE,149,0.0,5.0,30,0.00,,---,0.00,VWS V14.00,2013-02-23 18:23:00,
2013-02-23 11:28:00,51.9,23.0,30.12,SSE,149,0.0,5.0,32,0.00,,---,0.00,VWS V14.00,2013-02-23 18:28:00,
2013-02-23 11:33:00,52.3,22.6,30.12,South,175,2.0,2.0,31,0.00,,---,0.00,VWS V14.00,2013-02-23 18:33:00,
2013-02-23 11:38:00,51.8,20.6,30.11,SSE,165,0.0,7.0,29,0.00,,---,0.00,VWS V14.00,2013-02-23 18:38:00,
2013-02-23 11:43:00,51.6,22.0,30.11,South,178,0.0,7.0,31,0.00,,---,0.00,VWS V14.00,2013-02-23 18:43:00,
2013-02-23 11:48:00,51.7,22.1,30.11,South,170,0.0,7.0,31,0.00,,---,0.00,VWS V14.00,2013-02-23 18:48:00,
2013-02-23 11:53:00,52.0,22.3,30.10,SW,219,0.0,7.0,31,0.00,,---,0.00,VWS V14.00,2013-02-23 18:53:00,
2013-02-23 11:58:00,52.3,21.8,30.10,SSE,149,3.0,8.0,30,0.00,,---,0.00,VWS V14.00,2013-02-23 18:58:00,
2013-02-23 12:03:00,52.5,23.5,30.10,SE,145,0.0,3.0,32,0.00,,---,0.00,VWS V14.00,2013-02-23 19:03:00,
2013-02-23 12:08:00,52.9,22.3,30.08,SE,134,0.0,5.0,30,0.00,,---,0.00,VWS V14.00,2013-02-23 19:08:00,
2013-02-23 12:13:00,53.3,23.5,30.08,SE,136,0.0,5.0,31,0.00,,---,0.00,VWS V14.00,2013-02-23 19:13:00,
2013-02-23 12:18:00,53.7,23.0,30.09,SSE,148,2.0,7.0,30,0.00,,---,0.00,VWS V14.00,2013-02-23 19:18:00,
2013-02-23 12:23:00,54.1,22.6,30.07,SE,144,0.0,7.0,29,0.00,,---,0.00,VWS V14.00,2013-02-23 19:23:00,
2013-02-23 12:28:00,54.5,22.1,30.08,SE,140,0.0,7.0,28,0.00,,---,0.00,VWS V14.00,2013-02-23 19:28:00,
2013-02-23 12:33:00,54.8,23.2,30.07,SSW,196,0.0,9.0,29,0.00,,---,0.00,VWS V14.00,2013-02-23 19:33:00,
2013-02-23 12:38:00,54.9,23.3,30.07,SE,144,0.0,9.0,29,0.00,,---,0.00,VWS V14.00,2013-02-23 19:38:00,
2013-02-23 12:43:00,55.0,23.4,30.06,SSE,161,3.0,9.0,29,0.00,,---,0.00,VWS V14.00,2013-02-23 19:43:00,
2013-02-23 12:48:00,55.0,23.4,30.06,SSW,196,0.0,9.0,29,0.00,,---,0.00,VWS V14.00,2013-02-23 19:48:00,
2013-02-23 12:53:00,55.4,23.7,30.06,SW,215,6.0,14.0,29,0.00,,---,0.00,VWS V14.00,2013-02-23 19:53:00,
2013-02-23 12:58:00,55.0,22.5,30.05,South,180,0.0,14.0,28,0.00,,---,0.00,VWS V14.00,2013-02-23 19:58:00,
2013-02-23 13:03:00,54.9,22.4,30.05,SW,216,0.0,11.0,28,0.00,,---,0.00,VWS V14.00,2013-02-23 20:03:00,
2013-02-23 13:08:00,55.0,22.5,30.04,SW,234,3.0,11.0,28,0.00,,---,0.00,VWS V14.00,2013-02-23 20:08:00,
2013-02-23 13:13:00,55.0,23.4,30.03,SSE,155,1.0,13.0,29,0.00,,---,0.00,VWS V14.00,2013-02-23 20:13:00,
2013-02-23 13:18:00,55.2,24.3,30.03,SSE,158,0.0,13.0,30,0.00,,---,0.00,VWS V14.00,2013-02-23 20:18:00,
2013-02-23 13:23:00,55.8,23.2,30.02,SSE,164,6.0,13.0,28,0.00,,---,0.00,VWS V14.00,2013-02-23 20:23:00,
2013-02-23 13:28:00,55.8,22.3,30.02,North,355,2.0,13.0,27,0.00,,---,0.00,VWS V14.00,2013-02-23 20:28:00,
2013-02-23 13:33:00,56.1,24.3,30.01,SSE,147,3.0,6.0,29,0.00,,---,0.00,VWS V14.00,2013-02-23 20:33:00,
2013-02-23 13:38:00,56.6,23.9,30.01,South,172,6.0,6.0,28,0.00,,---,0.00,VWS V14.00,2013-02-23 20:38:00,
2013-02-23 13:43:00,57.0,24.2,30.01,WSW,250,6.0,7.0,28,0.00,,---,0.00,VWS V14.00,2013-02-23 20:43:00,
2013-02-23 13:48:00,56.8,24.9,30.01,SSW,205,2.0,7.0,29,0.00,,---,0.00,VWS V14.00,2013-02-23 20:48:00,
2013-02-23 13:53:00,57.0,25.1,30.00,SSE,154,0.0,7.0,29,0.00,,---,0.00,VWS V14.00,2013-02-23 20:53:00,
2013-02-23 13:58:00,57.4,24.6,29.99,SE,143,0.0,11.0,28,0.00,,---,0.00,VWS V14.00,2013-02-23 20:58:00,
2013-02-23 14:03:00,57.7,24.0,29.99,South,175,0.0,0.0,27,0.00,,---,0.00,VWS V14.00,2013-02-23 21:03:00,
2013-02-23 14:08:00,57.8,24.1,29.99,WSW,238,0.0,5.0,27,0.00,,---,0.00,VWS V14.00,2013-02-23 21:08:00,
2013-02-23 14:13:00,57.7,23.1,29.99,SSW,206,4.0,6.0,26,0.00,,---,0.00,VWS V14.00,2013-02-23 21:13:00,
2013-02-23 14:18:00,57.5,23.8,29.99,SSW,211,11.0,12.0,27,0.00,,---,0.00,VWS V14.00,2013-02-23 21:18:00,
2013-02-23 14:24:00,57.3,23.6,29.98,SW,226,3.0,12.0,27,0.00,,---,0.00,VWS V14.00,2013-02-23 21:24:00,
2013-02-23 14:28:00,57.3,23.6,29.97,SW,221,1.0,12.0,27,0.00,,---,0.00,VWS V14.00,2013-02-23 21:28:00,
2013-02-23 14:34:00,57.3,23.6,29.97,SE,140,0.0,0.0,27,0.00,,---,0.00,VWS V14.00,2013-02-23 21:34:00,
2013-02-23 14:38:00,57.7,24.0,29.97,West,272,4.0,12.0,27,0.00,,---,0.00,VWS V14.00,2013-02-23 21:38:00,
2013-02-23 14:43:00,58.0,25.1,29.97,West,272,9.0,12.0,28,0.00,,---,0.00,VWS V14.00,2013-02-23 21:43:00,
2013-02-23 14:49:00,57.9,25.0,29.96,West,275,6.0,12.0,28,0.00,,---,0.00,VWS V14.00,2013-02-23 21:49:00,
2013-02-23 14:54:00,58.0,24.2,29.96,West,275,4.0,12.0,27,0.00,,---,0.00,VWS V14.00,2013-02-23 21:54:00,
2013-02-23 14:59:00,58.4,25.5,29.96,SW,222,2.0,12.0,28,0.00,,---,0.00,VWS V14.00,2013-02-23 21:59:00,
2013-02-23 15:04:00,58.6,24.8,29.96,SSW,192,1.0,2.0,27,0.00,,---,0.00,VWS V14.00,2013-02-23 22:04:00,
2013-02-23 15:09:00,58.7,25.7,29.96,WNW,296,4.0,5.0,28,0.00,,---,0.00,VWS V14.00,2013-02-23 22:09:00,
2013-02-23 15:14:00,58.9,25.9,29.95,West,259,2.0,8.0,28,0.00,,---,0.00,VWS V14.00,2013-02-23 22:14:00,
2013-02-23 15:19:00,58.9,25.9,29.94,West,279,3.0,17.0,28,0.00,,---,0.00,VWS V14.00,2013-02-23 22:19:00,
2013-02-23 15:24:00,58.5,25.5,29.94,West,265,5.0,17.0,28,0.00,,---,0.00,VWS V14.00,2013-02-23 22:24:00,
2013-02-23 15:29:00,58.7,25.7,29.94,WSW,250,10.0,17.0,28,0.00,,---,0.00,VWS V14.00,2013-02-23 22:29:00,
2013-02-23 15:34:00,58.6,25.6,29.95,WSW,243,0.0,4.0,28,0.00,,---,0.00,VWS V14.00,2013-02-23 22:34:00,
2013-02-23 15:39:00,58.7,26.5,29.94,West,264,13.0,14.0,29,0.00,,---,0.00,VWS V14.00,2013-02-23 22:39:00,
2013-02-23 15:44:00,58.3,27.0,29.94,West,268,7.0,14.0,30,0.00,,---,0.00,VWS V14.00,2013-02-23 22:44:00,
2013-02-23 15:49:00,58.2,27.7,29.94,West,275,9.0,16.0,31,0.00,,---,0.00,VWS V14.00,2013-02-23 22:49:00,
2013-02-23 15:54:00,58.0,26.8,29.93,West,265,7.0,16.0,30,0.00,,---,0.00,VWS V14.00,2013-02-23 22:54:00,
2013-02-23 15:59:00,57.8,26.6,29.94,West,261,8.0,16.0,30,0.00,,---,0.00,VWS V14.00,2013-02-23 22:59:00,
2013-02-23 16:04:00,57.7,26.5,29.94,WNW,299,7.0,11.0,30,0.00,,---,0.00,VWS V14.00,2013-02-23 23:04:00,
2013-02-23 16:09:00,57.7,24.8,29.93,West,266,10.0,16.0,28,0.00,,---,0.00,VWS V14.00,2013-02-23 23:09:00,
2013-02-23 16:14:00,57.7,23.1,29.93,West,272,5.0,16.0,26,0.00,,---,0.00,VWS V14.00,2013-02-23 23:14:00,
2013-02-23 16:19:00,57.7,22.1,29.93,West,279,9.0,17.0,25,0.00,,---,0.00,VWS V14.00,2013-02-23 23:19:00,
2013-02-23 16:24:00,57.6,22.1,29.93,West,259,9.0,17.0,25,0.00,,---,0.00,VWS V14.00,2013-02-23 23:24:00,
2013-02-23 16:29:00,57.7,21.2,29.93,WSW,245,11.0,17.0,24,0.00,,---,0.00,VWS V14.00,2013-02-23 23:29:00,
2013-02-23 16:34:00,57.7,19.1,29.93,WSW,257,10.0,17.0,22,0.00,,---,0.00,VWS V14.00,2013-02-23 23:34:00,
2013-02-23 16:39:00,57.7,20.2,29.93,West,267,7.0,17.0,23,0.00,,---,0.00,VWS V14.00,2013-02-23 23:39:00,
2013-02-23 16:44:00,57.6,19.1,29.93,West,263,11.0,17.0,22,0.00,,---,0.00,VWS V14.00,2013-02-23 23:44:00,
2013-02-23 16:49:00,57.4,18.9,29.93,WNW,288,3.0,17.0,22,0.00,,---,0.00,VWS V14.00,2013-02-23 23:49:00,
2013-02-23 16:54:00,57.3,18.8,29.93,WNW,284,13.0,17.0,22,0.00,,---,0.00,VWS V14.00,2013-02-23 23:54:00,
2013-02-23 16:59:00,57.1,19.7,29.92,West,275,11.0,17.0,23,0.00,,---,0.00,VWS V14.00,2013-02-23 23:59:00,
2013-02-23 17:04:00,56.7,20.3,29.92,West,279,9.0,17.0,24,0.00,,---,0.00,VWS V14.00,2013-02-24 00:04:00,
2013-02-23 17:09:00,56.1,19.8,29.92,West,269,10.0,17.0,24,0.00,,---,0.00,VWS V14.00,2013-02-24 00:09:00,
2013-02-23 17:14:00,55.8,20.5,29.92,West,277,10.0,18.0,25,0.00,,---,0.00,VWS V14.00,2013-02-24 00:14:00,
2013-02-23 17:19:00,55.4,20.2,29.92,WNW,284,14.0,18.0,25,0.00,,---,0.00,VWS V14.00,2013-02-24 00:19:00,
2013-02-23 17:24:00,55.2,20.9,29.93,WSW,253,9.0,18.0,26,0.00,,---,0.00,VWS V14.00,2013-02-24 00:24:00,
2013-02-23 17:29:00,54.9,19.8,29.93,West,279,9.0,18.0,25,0.00,,---,0.00,VWS V14.00,2013-02-24 00:29:00,
2013-02-23 17:35:00,54.4,20.2,29.92,West,275,6.0,12.0,26,0.00,,---,0.00,VWS V14.00,2013-02-24 00:35:00,
2013-02-23 17:40:00,54.0,20.8,29.92,West,270,10.0,14.0,27,0.00,,---,0.00,VWS V14.00,2013-02-24 00:40:00,
2013-02-23 17:45:00,53.7,21.4,29.92,West,274,0.0,14.0,28,0.00,,---,0.00,VWS V14.00,2013-02-24 00:45:00,
2013-02-23 17:50:00,53.1,21.7,29.92,West,267,8.0,14.0,29,0.00,,---,0.00,VWS V14.00,2013-02-24 00:50:00,
2013-02-23 17:55:00,52.5,22.0,29.92,West,259,9.0,14.0,30,0.00,,---,0.00,VWS V14.00,2013-02-24 00:55:00,
2013-02-23 18:00:00,51.9,22.2,29.92,West,271,2.0,14.0,31,0.00,,---,0.00,VWS V14.00,2013-02-24 01:00:00,
2013-02-23 18:05:00,51.3,22.5,29.92,West,263,1.0,10.0,32,0.00,,---,0.00,VWS V14.00,2013-02-24 01:05:00,
2013-02-23 18:10:00,50.7,22.7,29.92,West,263,0.0,10.0,33,0.00,,---,0.00,VWS V14.00,2013-02-24 01:10:00,
2013-02-23 18:15:00,50.1,22.8,29.92,West,263,0.0,10.0,34,0.00,,---,0.00,VWS V14.00,2013-02-24 01:15:00,
2013-02-23 18:20:00,49.1,22.6,29.92,West,263,0.0,10.0,35,0.00,,---,0.00,VWS V14.00,2013-02-24 01:20:00,
2013-02-23 18:25:00,48.3,22.6,29.92,West,263,0.0,10.0,36,0.00,,---,0.00,VWS V14.00,2013-02-24 01:25:00,
2013-02-23 18:30:00,47.8,22.8,29.91,West,263,0.0,10.0,37,0.00,,---,0.00,VWS V14.00,2013-02-24 01:30:00,
2013-02-23 18:35:00,47.1,22.8,29.91,West,263,0.0,0.0,38,0.00,,---,0.00,VWS V14.00,2013-02-24 01:35:00,
2013-02-23 18:40:00,46.0,23.0,29.92,West,263,0.0,0.0,40,0.00,,---,0.00,VWS V14.00,2013-02-24 01:40:00,
2013-02-23 18:45:00,44.9,23.2,29.92,West,263,0.0,1.0,42,0.00,,---,0.00,VWS V14.00,2013-02-24 01:45:00,
2013-02-23 18:50:00,44.1,23.0,29.92,West,263,0.0,1.0,43,0.00,,---,0.00,VWS V14.00,2013-02-24 01:50:00,
2013-02-23 18:55:00,43.7,23.2,29.92,West,263,0.0,1.0,44,0.00,,---,0.00,VWS V14.00,2013-02-24 01:55:00,
2013-02-23 19:00:00,43.6,23.1,29.92,West,263,0.0,1.0,44,0.00,,---,0.00,VWS V14.00,2013-02-24 02:00:00,
2013-02-23 19:05:00,43.6,22.6,29.92,West,263,0.0,0.0,43,0.00,,---,0.00,VWS V14.00,2013-02-24 02:05:00,
2013-02-23 19:10:00,43.8,22.8,29.93,West,263,0.0,0.0,43,0.00,,---,0.00,VWS V14.00,2013-02-24 02:10:00,
2013-02-23 19:15:00,43.5,23.0,29.93,West,263,0.0,0.0,44,0.00,,---,0.00,VWS V14.00,2013-02-24 02:15:00,
2013-02-23 19:20:00,42.9,23.0,29.92,West,263,0.0,0.0,45,0.00,,---,0.00,VWS V14.00,2013-02-24 02:20:00,
2013-02-23 19:25:00,42.1,22.8,29.92,West,263,0.0,0.0,46,0.00,,---,0.00,VWS V14.00,2013-02-24 02:25:00,
2013-02-23 19:30:00,41.4,23.2,29.92,West,263,0.0,0.0,48,0.00,,---,0.00,VWS V14.00,2013-02-24 02:30:00,
2013-02-23 19:35:00,40.8,23.1,29.92,West,263,0.0,0.0,49,0.00,,---,0.00,VWS V14.00,2013-02-24 02:35:00,
2013-02-23 19:40:00,40.1,23.4,29.92,West,263,0.0,0.0,51,0.00,,---,0.00,VWS V14.00,2013-02-24 02:40:00,
2013-02-23 19:45:00,39.0,22.9,29.92,West,263,0.0,0.0,52,0.00,,---,0.00,VWS V14.00,2013-02-24 02:45:00,
2013-02-23 19:50:00,38.5,23.3,29.92,West,263,0.0,0.0,54,0.00,,---,0.00,VWS V14.00,2013-02-24 02:50:00,
2013-02-23 19:55:00,38.4,23.7,29.92,West,263,0.0,0.0,55,0.00,,---,0.00,VWS V14.00,2013-02-24 02:55:00,
2013-02-23 20:00:00,38.8,24.0,29.92,West,263,0.0,0.0,55,0.00,,---,0.00,VWS V14.00,2013-02-24 03:00:00,
2013-02-23 20:05:00,39.3,23.6,29.92,West,263,0.0,0.0,53,0.00,,---,0.00,VWS V14.00,2013-02-24 03:05:00,
2013-02-23 20:10:00,39.5,23.8,29.92,West,263,0.0,0.0,53,0.00,,---,0.00,VWS V14.00,2013-02-24 03:10:00,
2013-02-23 20:15:00,38.8,23.6,29.92,West,263,0.0,0.0,54,0.00,,---,0.00,VWS V14.00,2013-02-24 03:15:00,
2013-02-23 20:20:00,38.4,23.2,29.92,West,263,0.0,0.0,54,0.00,,---,0.00,VWS V14.00,2013-02-24 03:20:00,
2013-02-23 20:25:00,38.3,23.6,29.92,West,263,0.0,0.0,55,0.00,,---,0.00,VWS V14.00,2013-02-24 03:25:00,
2013-02-23 20:30:00,38.5,23.8,29.92,West,263,0.0,0.0,55,0.00,,---,0.00,VWS V14.00,2013-02-24 03:30:00,
2013-02-23 20:35:00,38.4,24.1,29.92,West,263,0.0,0.0,56,0.00,,---,0.00,VWS V14.00,2013-02-24 03:35:00,
2013-02-23 20:40:00,37.9,23.2,29.92,West,263,0.0,0.0,55,0.00,,---,0.00,VWS V14.00,2013-02-24 03:40:00,
2013-02-23 20:45:00,37.4,23.6,29.92,West,263,0.0,0.0,57,0.00,,---,0.00,VWS V14.00,2013-02-24 03:45:00,
2013-02-23 20:50:00,36.9,23.1,29.92,West,263,0.0,0.0,57,0.00,,---,0.00,VWS V14.00,2013-02-24 03:50:00,
2013-02-23 20:55:00,37.1,23.7,29.91,WSW,241,0.0,0.0,58,0.00,,---,0.00,VWS V14.00,2013-02-24 03:55:00,
2013-02-23 21:00:00,37.1,23.7,29.91,WSW,241,0.0,0.0,58,0.00,,---,0.00,VWS V14.00,2013-02-24 04:00:00,
2013-02-23 21:05:00,37.0,23.6,29.91,WSW,241,0.0,0.0,58,0.00,,---,0.00,VWS V14.00,2013-02-24 04:05:00,
2013-02-23 21:10:00,37.6,24.2,29.91,WSW,241,0.0,0.0,58,0.00,,---,0.00,VWS V14.00,2013-02-24 04:10:00,
2013-02-23 21:15:00,38.6,24.3,29.91,WSW,241,0.0,0.0,56,0.00,,---,0.00,VWS V14.00,2013-02-24 04:15:00,
2013-02-23 21:20:00,39.3,24.5,29.91,South,188,0.0,0.0,55,0.00,,---,0.00,VWS V14.00,2013-02-24 04:20:00,
2013-02-23 21:25:00,39.0,24.2,29.90,South,188,0.0,0.0,55,0.00,,---,0.00,VWS V14.00,2013-02-24 04:25:00,
2013-02-23 21:30:00,38.9,24.1,29.91,South,187,0.0,0.0,55,0.00,,---,0.00,VWS V14.00,2013-02-24 04:30:00,
2013-02-23 21:35:00,38.0,24.1,29.91,South,174,0.0,0.0,57,0.00,,---,0.00,VWS V14.00,2013-02-24 04:35:00,
2013-02-23 21:40:00,37.5,24.1,29.91,South,174,0.0,0.0,58,0.00,,---,0.00,VWS V14.00,2013-02-24 04:40:00,
2013-02-23 21:45:00,37.7,23.9,29.91,South,173,0.0,0.0,57,0.00,,---,0.00,VWS V14.00,2013-02-24 04:45:00,
2013-02-23 21:50:00,38.2,23.9,29.91,South,173,0.0,0.0,56,0.00,,---,0.00,VWS V14.00,2013-02-24 04:50:00,
2013-02-23 21:55:00,37.9,23.6,29.91,South,173,0.0,0.0,56,0.00,,---,0.00,VWS V14.00,2013-02-24 04:55:00,
2013-02-23 22:00:00,37.5,23.2,29.91,South,173,0.0,0.0,56,0.00,,---,0.00,VWS V14.00,2013-02-24 05:00:00,
2013-02-23 22:05:00,38.8,23.6,29.92,South,173,0.0,0.0,54,0.00,,---,0.00,VWS V14.00,2013-02-24 05:05:00,
2013-02-23 22:10:00,38.0,23.3,29.92,South,173,0.0,0.0,55,0.00,,---,0.00,VWS V14.00,2013-02-24 05:10:00,
2013-02-23 22:15:00,36.9,23.5,29.92,South,173,0.0,0.0,58,0.00,,---,0.00,VWS V14.00,2013-02-24 05:15:00,
2013-02-23 22:20:00,36.2,23.3,29.92,South,173,0.0,0.0,59,0.00,,---,0.00,VWS V14.00,2013-02-24 05:20:00,
2013-02-23 22:25:00,36.1,23.6,29.92,South,173,0.0,0.0,60,0.00,,---,0.00,VWS V14.00,2013-02-24 05:25:00,
2013-02-23 22:30:00,35.4,22.9,29.92,South,173,0.0,0.0,60,0.00,,---,0.00,VWS V14.00,2013-02-24 05:30:00,
2013-02-23 22:35:00,34.7,22.6,29.92,South,173,0.0,0.0,61,0.00,,---,0.00,VWS V14.00,2013-02-24 05:35:00,
2013-02-23 22:40:00,34.3,23.4,29.91,South,173,0.0,0.0,64,0.00,,---,0.00,VWS V14.00,2013-02-24 05:40:00,
2013-02-23 22:45:00,34.5,23.6,29.91,South,173,0.0,0.0,64,0.00,,---,0.00,VWS V14.00,2013-02-24 05:45:00,
2013-02-23 22:50:00,34.6,23.7,29.91,South,173,0.0,0.0,64,0.00,,---,0.00,VWS V14.00,2013-02-24 05:50:00,
2013-02-23 22:55:00,33.9,22.6,29.91,South,173,0.0,0.0,63,0.00,,---,0.00,VWS V14.00,2013-02-24 05:55:00,
2013-02-23 23:00:00,33.3,23.2,29.91,South,173,0.0,0.0,66,0.00,,---,0.00,VWS V14.00,2013-02-24 06:00:00,
2013-02-23 23:05:00,33.4,23.3,29.91,South,173,0.0,0.0,66,0.00,,---,0.00,VWS V14.00,2013-02-24 06:05:00,
2013-02-23 23:10:00,33.2,23.1,29.91,South,173,0.0,0.0,66,0.00,,---,0.00,VWS V14.00,2013-02-24 06:10:00,
2013-02-23 23:15:00,33.0,23.6,29.91,South,173,0.0,0.0,68,0.00,,---,0.00,VWS V14.00,2013-02-24 06:15:00,
2013-02-23 23:20:00,32.8,23.8,29.91,South,173,0.0,0.0,69,0.00,,---,0.00,VWS V14.00,2013-02-24 06:20:00,
2013-02-23 23:25:00,32.9,23.9,29.91,South,173,0.0,0.0,69,0.00,,---,0.00,VWS V14.00,2013-02-24 06:25:00,
2013-02-23 23:30:00,33.0,24.0,29.91,South,173,0.0,0.0,69,0.00,,---,0.00,VWS V14.00,2013-02-24 06:30:00,
2013-02-23 23:35:00,33.1,23.7,29.92,South,173,0.0,0.0,68,0.00,,---,0.00,VWS V14.00,2013-02-24 06:35:00,
2013-02-23 23:40:00,32.8,23.4,29.92,South,173,0.0,0.0,68,0.00,,---,0.00,VWS V14.00,2013-02-24 06:40:00,
2013-02-23 23:45:00,32.8,23.8,29.92,South,173,0.0,0.0,69,0.00,,---,0.00,VWS V14.00,2013-02-24 06:45:00,
2013-02-23 23:50:00,33.6,23.8,29.91,South,173,0.0,0.0,67,0.00,,---,0.00,VWS V14.00,2013-02-24 06:50:00,
2013-02-23 23:55:00,34.3,24.1,29.91,South,173,0.0,0.0,66,0.00,,---,0.00,VWS V14.00,2013-02-24 06:55:00,